sensor_id;sensor_type;location;lat;lon;timestamp;P1;durP1;ratioP1;P2;durP2;ratioP2
20065;SDS011;10193;48.884;9.182;2023-03-01T00:01:52;9.30;;;7.30;;
20065;SDS011;10193;48.884;9.182;2023-03-01T00:04:18;9.37;;;7.27;;
20065;SDS011;10193;48.884;9.182;2023-03-01T00:06:45;7.93;;;6.90;;
20065;SDS011;10193;48.884;9.182;2023-03-01T00:09:14;8.77;;;7.30;;
20065;SDS011;10193;48.884;9.182;2023-03-01T00:11:41;9.13;;;7.33;;
20065;SDS011;10193;48.884;9.182;2023-03-01T00:14:08;7.63;;;6.80;;
20065;SDS011;10193;48.884;9.182;2023-03-01T00:16:35;9.67;;;7.13;;
20065;SDS011;10193;48.884;9.182;2023-03-01T00:19:04;8.73;;;7.27;;
20065;SDS011;10193;48.884;9.182;2023-03-01T00:21:32;8.93;;;7.57;;
20065;SDS011;10193;48.884;9.182;2023-03-01T00:24:00;9.27;;;7.20;;
20065;SDS011;10193;48.884;9.182;2023-03-01T00:26:28;9.47;;;7.63;;
20065;SDS011;10193;48.884;9.182;2023-03-01T00:28:56;8.73;;;7.67;;
20065;SDS011;10193;48.884;9.182;2023-03-01T00:31:24;8.23;;;7.27;;
20065;SDS011;10193;48.884;9.182;2023-03-01T00:33:52;9.17;;;7.20;;
20065;SDS011;10193;48.884;9.182;2023-03-01T00:36:21;8.73;;;7.47;;
20065;SDS011;10193;48.884;9.182;2023-03-01T00:38:49;8.17;;;7.13;;
20065;SDS011;10193;48.884;9.182;2023-03-01T00:41:16;9.30;;;7.20;;
20065;SDS011;10193;48.884;9.182;2023-03-01T00:43:46;8.97;;;7.40;;
20065;SDS011;10193;48.884;9.182;2023-03-01T00:46:14;9.70;;;7.67;;
20065;SDS011;10193;48.884;9.182;2023-03-01T00:48:42;8.70;;;7.20;;
20065;SDS011;10193;48.884;9.182;2023-03-01T00:51:10;8.30;;;7.00;;
20065;SDS011;10193;48.884;9.182;2023-03-01T00:53:38;9.13;;;7.43;;
20065;SDS011;10193;48.884;9.182;2023-03-01T00:56:06;9.70;;;8.10;;
20065;SDS011;10193;48.884;9.182;2023-03-01T00:58:34;8.60;;;7.27;;
20065;SDS011;10193;48.884;9.182;2023-03-01T01:01:07;8.60;;;7.67;;
20065;SDS011;10193;48.884;9.182;2023-03-01T01:03:42;8.50;;;7.07;;
20065;SDS011;10193;48.884;9.182;2023-03-01T01:06:13;9.70;;;7.27;;
20065;SDS011;10193;48.884;9.182;2023-03-01T01:08:40;9.37;;;7.60;;
20065;SDS011;10193;48.884;9.182;2023-03-01T01:11:08;10.23;;;7.83;;
20065;SDS011;10193;48.884;9.182;2023-03-01T01:13:35;9.70;;;7.90;;
20065;SDS011;10193;48.884;9.182;2023-03-01T01:16:02;10.10;;;7.93;;
20065;SDS011;10193;48.884;9.182;2023-03-01T01:18:30;8.43;;;7.10;;
20065;SDS011;10193;48.884;9.182;2023-03-01T01:20:57;9.77;;;7.87;;
20065;SDS011;10193;48.884;9.182;2023-03-01T01:23:28;9.27;;;7.73;;
20065;SDS011;10193;48.884;9.182;2023-03-01T01:25:55;9.70;;;8.13;;
20065;SDS011;10193;48.884;9.182;2023-03-01T01:28:22;9.57;;;7.80;;
20065;SDS011;10193;48.884;9.182;2023-03-01T01:30:48;10.30;;;8.67;;
20065;SDS011;10193;48.884;9.182;2023-03-01T01:33:15;9.70;;;7.47;;
20065;SDS011;10193;48.884;9.182;2023-03-01T01:35:44;9.00;;;7.80;;
20065;SDS011;10193;48.884;9.182;2023-03-01T01:38:11;10.47;;;8.50;;
20065;SDS011;10193;48.884;9.182;2023-03-01T01:40:42;9.27;;;7.77;;
20065;SDS011;10193;48.884;9.182;2023-03-01T01:43:11;9.27;;;8.07;;
20065;SDS011;10193;48.884;9.182;2023-03-01T01:45:43;11.07;;;8.80;;
20065;SDS011;10193;48.884;9.182;2023-03-01T01:48:12;10.33;;;8.27;;
20065;SDS011;10193;48.884;9.182;2023-03-01T01:50:42;10.30;;;8.53;;
20065;SDS011;10193;48.884;9.182;2023-03-01T01:53:14;9.40;;;7.77;;
20065;SDS011;10193;48.884;9.182;2023-03-01T01:55:44;9.80;;;7.70;;
20065;SDS011;10193;48.884;9.182;2023-03-01T01:58:13;9.23;;;7.83;;
20065;SDS011;10193;48.884;9.182;2023-03-01T02:00:43;9.97;;;7.80;;
20065;SDS011;10193;48.884;9.182;2023-03-01T02:03:12;9.70;;;8.13;;
20065;SDS011;10193;48.884;9.182;2023-03-01T02:05:44;10.33;;;8.13;;
20065;SDS011;10193;48.884;9.182;2023-03-01T02:08:16;10.17;;;8.10;;
20065;SDS011;10193;48.884;9.182;2023-03-01T02:10:45;9.87;;;8.57;;
20065;SDS011;10193;48.884;9.182;2023-03-01T02:13:14;10.70;;;8.10;;
20065;SDS011;10193;48.884;9.182;2023-03-01T02:15:41;9.23;;;7.90;;
20065;SDS011;10193;48.884;9.182;2023-03-01T02:18:10;9.63;;;7.73;;
20065;SDS011;10193;48.884;9.182;2023-03-01T02:20:40;9.93;;;8.00;;
20065;SDS011;10193;48.884;9.182;2023-03-01T02:23:27;10.23;;;7.90;;
20065;SDS011;10193;48.884;9.182;2023-03-01T02:25:56;9.83;;;7.83;;
20065;SDS011;10193;48.884;9.182;2023-03-01T02:28:31;9.63;;;8.13;;
20065;SDS011;10193;48.884;9.182;2023-03-01T02:30:59;9.83;;;8.17;;
20065;SDS011;10193;48.884;9.182;2023-03-01T02:33:44;10.87;;;8.20;;
20065;SDS011;10193;48.884;9.182;2023-03-01T02:36:14;11.17;;;8.43;;
20065;SDS011;10193;48.884;9.182;2023-03-01T02:38:43;9.60;;;8.27;;
20065;SDS011;10193;48.884;9.182;2023-03-01T02:41:11;9.73;;;8.27;;
20065;SDS011;10193;48.884;9.182;2023-03-01T02:43:42;11.00;;;8.67;;
20065;SDS011;10193;48.884;9.182;2023-03-01T02:46:13;9.57;;;7.90;;
20065;SDS011;10193;48.884;9.182;2023-03-01T02:48:43;9.60;;;8.37;;
20065;SDS011;10193;48.884;9.182;2023-03-01T02:54:08;10.67;;;8.90;;
20065;SDS011;10193;48.884;9.182;2023-03-01T02:56:41;10.57;;;9.30;;
20065;SDS011;10193;48.884;9.182;2023-03-01T02:59:14;10.93;;;8.57;;
20065;SDS011;10193;48.884;9.182;2023-03-01T03:01:42;10.40;;;8.83;;
20065;SDS011;10193;48.884;9.182;2023-03-01T03:04:10;10.37;;;9.30;;
20065;SDS011;10193;48.884;9.182;2023-03-01T03:06:41;10.93;;;8.93;;
20065;SDS011;10193;48.884;9.182;2023-03-01T03:09:08;10.63;;;9.17;;
20065;SDS011;10193;48.884;9.182;2023-03-01T03:11:35;10.87;;;8.50;;
20065;SDS011;10193;48.884;9.182;2023-03-01T03:14:04;10.90;;;8.67;;
20065;SDS011;10193;48.884;9.182;2023-03-01T03:16:38;10.30;;;8.77;;
20065;SDS011;10193;48.884;9.182;2023-03-01T03:19:06;10.03;;;8.60;;
20065;SDS011;10193;48.884;9.182;2023-03-01T03:21:33;10.33;;;8.93;;
20065;SDS011;10193;48.884;9.182;2023-03-01T03:24:00;9.70;;;8.43;;
20065;SDS011;10193;48.884;9.182;2023-03-01T03:26:27;10.07;;;8.97;;
20065;SDS011;10193;48.884;9.182;2023-03-01T03:28:54;9.53;;;8.23;;
20065;SDS011;10193;48.884;9.182;2023-03-01T03:31:20;10.90;;;9.20;;
20065;SDS011;10193;48.884;9.182;2023-03-01T03:33:48;10.70;;;8.90;;
20065;SDS011;10193;48.884;9.182;2023-03-01T03:36:15;10.30;;;9.10;;
20065;SDS011;10193;48.884;9.182;2023-03-01T03:38:43;10.17;;;9.07;;
20065;SDS011;10193;48.884;9.182;2023-03-01T03:41:11;10.50;;;9.30;;
20065;SDS011;10193;48.884;9.182;2023-03-01T03:43:39;9.90;;;8.87;;
20065;SDS011;10193;48.884;9.182;2023-03-01T03:46:08;10.10;;;9.03;;
20065;SDS011;10193;48.884;9.182;2023-03-01T03:48:35;11.23;;;9.20;;
20065;SDS011;10193;48.884;9.182;2023-03-01T03:51:05;10.40;;;9.17;;
20065;SDS011;10193;48.884;9.182;2023-03-01T03:53:32;9.63;;;8.53;;
20065;SDS011;10193;48.884;9.182;2023-03-01T03:55:59;10.70;;;8.97;;
20065;SDS011;10193;48.884;9.182;2023-03-01T03:58:26;10.70;;;8.73;;
20065;SDS011;10193;48.884;9.182;2023-03-01T04:00:53;9.90;;;8.73;;
20065;SDS011;10193;48.884;9.182;2023-03-01T04:03:22;10.10;;;8.87;;
20065;SDS011;10193;48.884;9.182;2023-03-01T04:05:51;9.47;;;8.00;;
20065;SDS011;10193;48.884;9.182;2023-03-01T04:08:19;9.67;;;8.67;;
20065;SDS011;10193;48.884;9.182;2023-03-01T04:10:47;10.97;;;8.43;;
20065;SDS011;10193;48.884;9.182;2023-03-01T04:13:16;10.37;;;8.67;;
20065;SDS011;10193;48.884;9.182;2023-03-01T04:15:45;9.80;;;8.50;;
20065;SDS011;10193;48.884;9.182;2023-03-01T04:18:12;10.37;;;8.53;;
20065;SDS011;10193;48.884;9.182;2023-03-01T04:20:41;10.00;;;8.80;;
20065;SDS011;10193;48.884;9.182;2023-03-01T04:23:11;10.23;;;8.43;;
20065;SDS011;10193;48.884;9.182;2023-03-01T04:25:44;11.47;;;9.00;;
20065;SDS011;10193;48.884;9.182;2023-03-01T04:28:14;10.73;;;9.53;;
20065;SDS011;10193;48.884;9.182;2023-03-01T04:30:41;10.53;;;8.83;;
20065;SDS011;10193;48.884;9.182;2023-03-01T04:33:08;10.60;;;9.27;;
20065;SDS011;10193;48.884;9.182;2023-03-01T04:35:35;11.70;;;9.07;;
20065;SDS011;10193;48.884;9.182;2023-03-01T04:38:03;10.63;;;8.73;;
20065;SDS011;10193;48.884;9.182;2023-03-01T04:40:30;10.67;;;9.53;;
20065;SDS011;10193;48.884;9.182;2023-03-01T04:42:58;10.47;;;8.80;;
20065;SDS011;10193;48.884;9.182;2023-03-01T04:45:25;11.23;;;8.50;;
20065;SDS011;10193;48.884;9.182;2023-03-01T04:47:52;10.60;;;8.53;;
20065;SDS011;10193;48.884;9.182;2023-03-01T04:50:19;9.53;;;8.53;;
20065;SDS011;10193;48.884;9.182;2023-03-01T04:52:48;10.03;;;8.83;;
20065;SDS011;10193;48.884;9.182;2023-03-01T04:55:15;10.27;;;8.50;;
20065;SDS011;10193;48.884;9.182;2023-03-01T04:57:42;11.37;;;9.57;;
20065;SDS011;10193;48.884;9.182;2023-03-01T05:00:11;10.43;;;9.20;;
20065;SDS011;10193;48.884;9.182;2023-03-01T05:02:49;10.53;;;8.80;;
20065;SDS011;10193;48.884;9.182;2023-03-01T05:05:18;9.80;;;8.80;;
20065;SDS011;10193;48.884;9.182;2023-03-01T05:07:50;10.03;;;8.53;;
20065;SDS011;10193;48.884;9.182;2023-03-01T05:10:17;10.10;;;9.00;;
20065;SDS011;10193;48.884;9.182;2023-03-01T05:12:44;10.23;;;8.43;;
20065;SDS011;10193;48.884;9.182;2023-03-01T05:15:13;10.73;;;9.03;;
20065;SDS011;10193;48.884;9.182;2023-03-01T05:17:39;10.30;;;8.97;;
20065;SDS011;10193;48.884;9.182;2023-03-01T05:20:07;11.47;;;8.93;;
20065;SDS011;10193;48.884;9.182;2023-03-01T05:22:35;11.60;;;9.80;;
20065;SDS011;10193;48.884;9.182;2023-03-01T05:25:02;12.50;;;9.40;;
20065;SDS011;10193;48.884;9.182;2023-03-01T05:27:29;11.07;;;9.37;;
20065;SDS011;10193;48.884;9.182;2023-03-01T05:29:56;12.60;;;9.60;;
20065;SDS011;10193;48.884;9.182;2023-03-01T05:32:24;10.23;;;9.13;;
20065;SDS011;10193;48.884;9.182;2023-03-01T05:34:51;10.80;;;8.93;;
20065;SDS011;10193;48.884;9.182;2023-03-01T05:37:20;11.50;;;9.03;;
20065;SDS011;10193;48.884;9.182;2023-03-01T05:39:46;11.13;;;9.10;;
20065;SDS011;10193;48.884;9.182;2023-03-01T05:42:15;9.70;;;8.13;;
20065;SDS011;10193;48.884;9.182;2023-03-01T05:44:42;9.90;;;8.00;;
20065;SDS011;10193;48.884;9.182;2023-03-01T05:47:09;10.27;;;8.83;;
20065;SDS011;10193;48.884;9.182;2023-03-01T05:49:37;10.47;;;8.97;;
20065;SDS011;10193;48.884;9.182;2023-03-01T05:52:04;9.87;;;8.83;;
20065;SDS011;10193;48.884;9.182;2023-03-01T05:54:30;11.20;;;9.10;;
20065;SDS011;10193;48.884;9.182;2023-03-01T05:56:58;10.30;;;9.17;;
20065;SDS011;10193;48.884;9.182;2023-03-01T05:59:25;11.67;;;9.90;;
20065;SDS011;10193;48.884;9.182;2023-03-01T06:01:51;11.83;;;9.30;;
20065;SDS011;10193;48.884;9.182;2023-03-01T06:04:18;9.90;;;8.77;;
20065;SDS011;10193;48.884;9.182;2023-03-01T06:06:47;10.83;;;9.30;;
20065;SDS011;10193;48.884;9.182;2023-03-01T06:09:13;10.53;;;9.13;;
20065;SDS011;10193;48.884;9.182;2023-03-01T06:11:40;10.37;;;8.97;;
20065;SDS011;10193;48.884;9.182;2023-03-01T06:14:07;11.87;;;9.83;;
20065;SDS011;10193;48.884;9.182;2023-03-01T06:16:35;11.37;;;9.43;;
20065;SDS011;10193;48.884;9.182;2023-03-01T06:19:02;10.40;;;9.30;;
20065;SDS011;10193;48.884;9.182;2023-03-01T06:21:28;10.73;;;9.47;;
20065;SDS011;10193;48.884;9.182;2023-03-01T06:23:56;10.73;;;9.53;;
20065;SDS011;10193;48.884;9.182;2023-03-01T06:26:23;10.90;;;9.40;;
20065;SDS011;10193;48.884;9.182;2023-03-01T06:28:49;12.07;;;9.13;;
20065;SDS011;10193;48.884;9.182;2023-03-01T06:31:16;11.87;;;9.67;;
20065;SDS011;10193;48.884;9.182;2023-03-01T06:33:43;10.80;;;9.00;;
20065;SDS011;10193;48.884;9.182;2023-03-01T06:36:10;10.80;;;9.20;;
20065;SDS011;10193;48.884;9.182;2023-03-01T06:38:36;10.53;;;9.27;;
20065;SDS011;10193;48.884;9.182;2023-03-01T06:41:07;12.40;;;9.33;;
20065;SDS011;10193;48.884;9.182;2023-03-01T06:43:33;11.57;;;9.57;;
20065;SDS011;10193;48.884;9.182;2023-03-01T06:46:03;11.10;;;9.57;;
20065;SDS011;10193;48.884;9.182;2023-03-01T06:48:30;12.00;;;9.70;;
20065;SDS011;10193;48.884;9.182;2023-03-01T06:50:57;11.27;;;9.03;;
20065;SDS011;10193;48.884;9.182;2023-03-01T06:53:24;13.43;;;10.27;;
20065;SDS011;10193;48.884;9.182;2023-03-01T06:55:53;12.63;;;10.27;;
20065;SDS011;10193;48.884;9.182;2023-03-01T06:58:22;11.93;;;10.37;;
20065;SDS011;10193;48.884;9.182;2023-03-01T07:00:48;12.77;;;9.67;;
20065;SDS011;10193;48.884;9.182;2023-03-01T07:03:15;11.90;;;10.17;;
20065;SDS011;10193;48.884;9.182;2023-03-01T07:05:42;11.20;;;9.57;;
20065;SDS011;10193;48.884;9.182;2023-03-01T07:08:09;13.00;;;10.37;;
20065;SDS011;10193;48.884;9.182;2023-03-01T07:10:36;13.93;;;10.90;;
20065;SDS011;10193;48.884;9.182;2023-03-01T07:13:02;13.23;;;10.97;;
20065;SDS011;10193;48.884;9.182;2023-03-01T07:15:33;15.17;;;11.20;;
20065;SDS011;10193;48.884;9.182;2023-03-01T07:17:59;12.37;;;10.10;;
20065;SDS011;10193;48.884;9.182;2023-03-01T07:20:26;12.77;;;10.77;;
20065;SDS011;10193;48.884;9.182;2023-03-01T07:22:53;11.97;;;10.17;;
20065;SDS011;10193;48.884;9.182;2023-03-01T07:25:21;13.40;;;10.70;;
20065;SDS011;10193;48.884;9.182;2023-03-01T07:27:51;13.47;;;10.87;;
20065;SDS011;10193;48.884;9.182;2023-03-01T07:30:18;11.07;;;9.43;;
20065;SDS011;10193;48.884;9.182;2023-03-01T07:32:46;13.70;;;10.67;;
20065;SDS011;10193;48.884;9.182;2023-03-01T07:35:13;15.10;;;10.90;;
20065;SDS011;10193;48.884;9.182;2023-03-01T07:37:40;13.67;;;10.40;;
20065;SDS011;10193;48.884;9.182;2023-03-01T07:40:08;13.57;;;9.87;;
20065;SDS011;10193;48.884;9.182;2023-03-01T07:42:35;15.60;;;11.33;;
20065;SDS011;10193;48.884;9.182;2023-03-01T07:45:02;12.80;;;10.87;;
20065;SDS011;10193;48.884;9.182;2023-03-01T07:47:29;12.63;;;10.57;;
20065;SDS011;10193;48.884;9.182;2023-03-01T07:49:58;11.73;;;9.77;;
20065;SDS011;10193;48.884;9.182;2023-03-01T07:52:26;12.70;;;10.10;;
20065;SDS011;10193;48.884;9.182;2023-03-01T07:54:52;13.67;;;10.50;;
20065;SDS011;10193;48.884;9.182;2023-03-01T07:57:19;12.80;;;10.53;;
20065;SDS011;10193;48.884;9.182;2023-03-01T07:59:46;13.47;;;10.30;;
20065;SDS011;10193;48.884;9.182;2023-03-01T08:02:12;12.00;;;9.87;;
20065;SDS011;10193;48.884;9.182;2023-03-01T08:04:40;12.77;;;10.27;;
20065;SDS011;10193;48.884;9.182;2023-03-01T08:07:08;11.83;;;9.87;;
20065;SDS011;10193;48.884;9.182;2023-03-01T08:09:35;14.90;;;11.27;;
20065;SDS011;10193;48.884;9.182;2023-03-01T08:12:02;14.97;;;10.97;;
20065;SDS011;10193;48.884;9.182;2023-03-01T08:14:29;12.87;;;10.87;;
20065;SDS011;10193;48.884;9.182;2023-03-01T08:16:56;12.73;;;10.60;;
20065;SDS011;10193;48.884;9.182;2023-03-01T08:19:23;13.03;;;10.70;;
20065;SDS011;10193;48.884;9.182;2023-03-01T08:21:50;13.43;;;11.27;;
20065;SDS011;10193;48.884;9.182;2023-03-01T08:24:18;12.30;;;10.57;;
20065;SDS011;10193;48.884;9.182;2023-03-01T08:26:44;12.33;;;10.70;;
20065;SDS011;10193;48.884;9.182;2023-03-01T08:29:11;13.47;;;10.57;;
20065;SDS011;10193;48.884;9.182;2023-03-01T08:31:38;13.37;;;10.73;;
20065;SDS011;10193;48.884;9.182;2023-03-01T08:34:06;14.00;;;10.87;;
20065;SDS011;10193;48.884;9.182;2023-03-01T08:36:36;12.73;;;10.47;;
20065;SDS011;10193;48.884;9.182;2023-03-01T08:39:05;12.67;;;10.63;;
20065;SDS011;10193;48.884;9.182;2023-03-01T08:41:33;12.90;;;10.47;;
20065;SDS011;10193;48.884;9.182;2023-03-01T08:44:00;12.73;;;10.57;;
20065;SDS011;10193;48.884;9.182;2023-03-01T08:46:27;11.33;;;10.13;;
20065;SDS011;10193;48.884;9.182;2023-03-01T08:48:54;11.13;;;9.60;;
20065;SDS011;10193;48.884;9.182;2023-03-01T08:51:22;11.60;;;10.20;;
20065;SDS011;10193;48.884;9.182;2023-03-01T08:53:50;12.03;;;10.47;;
20065;SDS011;10193;48.884;9.182;2023-03-01T08:56:17;13.63;;;10.93;;
20065;SDS011;10193;48.884;9.182;2023-03-01T08:58:46;12.47;;;10.63;;
20065;SDS011;10193;48.884;9.182;2023-03-01T09:01:14;11.83;;;10.33;;
20065;SDS011;10193;48.884;9.182;2023-03-01T09:03:42;13.67;;;11.50;;
20065;SDS011;10193;48.884;9.182;2023-03-01T09:06:09;13.17;;;10.80;;
20065;SDS011;10193;48.884;9.182;2023-03-01T09:08:37;13.33;;;11.23;;
20065;SDS011;10193;48.884;9.182;2023-03-01T09:11:06;12.87;;;11.03;;
20065;SDS011;10193;48.884;9.182;2023-03-01T09:13:35;13.33;;;11.87;;
20065;SDS011;10193;48.884;9.182;2023-03-01T09:16:04;12.50;;;11.03;;
20065;SDS011;10193;48.884;9.182;2023-03-01T09:18:32;14.03;;;11.33;;
20065;SDS011;10193;48.884;9.182;2023-03-01T09:21:01;12.80;;;10.67;;
20065;SDS011;10193;48.884;9.182;2023-03-01T09:23:32;13.70;;;11.33;;
20065;SDS011;10193;48.884;9.182;2023-03-01T09:25:59;12.83;;;10.73;;
20065;SDS011;10193;48.884;9.182;2023-03-01T09:28:26;13.00;;;11.60;;
20065;SDS011;10193;48.884;9.182;2023-03-01T09:30:52;13.40;;;11.87;;
20065;SDS011;10193;48.884;9.182;2023-03-01T09:33:20;15.10;;;12.20;;
20065;SDS011;10193;48.884;9.182;2023-03-01T09:35:47;12.60;;;11.03;;
20065;SDS011;10193;48.884;9.182;2023-03-01T09:38:13;13.93;;;11.03;;
20065;SDS011;10193;48.884;9.182;2023-03-01T09:40:41;13.57;;;11.77;;
20065;SDS011;10193;48.884;9.182;2023-03-01T09:43:13;14.03;;;11.60;;
20065;SDS011;10193;48.884;9.182;2023-03-01T09:45:47;12.60;;;11.13;;
20065;SDS011;10193;48.884;9.182;2023-03-01T09:48:16;12.63;;;11.23;;
20065;SDS011;10193;48.884;9.182;2023-03-01T09:50:48;15.20;;;12.30;;
20065;SDS011;10193;48.884;9.182;2023-03-01T09:53:16;13.50;;;11.90;;
20065;SDS011;10193;48.884;9.182;2023-03-01T09:55:45;13.00;;;11.53;;
20065;SDS011;10193;48.884;9.182;2023-03-01T09:58:25;14.23;;;11.63;;
20065;SDS011;10193;48.884;9.182;2023-03-01T10:01:02;12.47;;;10.93;;
20065;SDS011;10193;48.884;9.182;2023-03-01T10:03:39;13.70;;;11.80;;
20065;SDS011;10193;48.884;9.182;2023-03-01T10:06:11;12.57;;;11.20;;
20065;SDS011;10193;48.884;9.182;2023-03-01T10:08:42;12.33;;;10.47;;
20065;SDS011;10193;48.884;9.182;2023-03-01T10:11:17;12.80;;;10.77;;
20065;SDS011;10193;48.884;9.182;2023-03-01T10:13:48;12.10;;;10.83;;
20065;SDS011;10193;48.884;9.182;2023-03-01T10:16:21;13.27;;;10.43;;
20065;SDS011;10193;48.884;9.182;2023-03-01T10:18:53;11.70;;;10.23;;
20065;SDS011;10193;48.884;9.182;2023-03-01T10:21:26;11.90;;;10.60;;
20065;SDS011;10193;48.884;9.182;2023-03-01T10:23:54;11.80;;;10.53;;
20065;SDS011;10193;48.884;9.182;2023-03-01T10:26:33;12.47;;;11.10;;
20065;SDS011;10193;48.884;9.182;2023-03-01T10:29:09;11.63;;;10.23;;
20065;SDS011;10193;48.884;9.182;2023-03-01T10:31:39;11.75;;;10.00;;
20065;SDS011;10193;48.884;9.182;2023-03-01T10:34:13;11.70;;;10.33;;
20065;SDS011;10193;48.884;9.182;2023-03-01T10:36:43;13.00;;;11.70;;
20065;SDS011;10193;48.884;9.182;2023-03-01T10:39:14;13.20;;;11.27;;
20065;SDS011;10193;48.884;9.182;2023-03-01T10:41:52;13.13;;;11.73;;
20065;SDS011;10193;48.884;9.182;2023-03-01T10:44:38;13.37;;;11.63;;
20065;SDS011;10193;48.884;9.182;2023-03-01T10:47:12;12.70;;;11.32;;
20065;SDS011;10193;48.884;9.182;2023-03-01T10:49:49;13.90;;;10.93;;
20065;SDS011;10193;48.884;9.182;2023-03-01T10:52:24;12.17;;;10.87;;
20065;SDS011;10193;48.884;9.182;2023-03-01T10:54:54;12.68;;;10.43;;
20065;SDS011;10193;48.884;9.182;2023-03-01T10:57:30;12.50;;;11.20;;
20065;SDS011;10193;48.884;9.182;2023-03-01T11:00:10;12.97;;;11.53;;
20065;SDS011;10193;48.884;9.182;2023-03-01T11:02:45;12.77;;;11.33;;
20065;SDS011;10193;48.884;9.182;2023-03-01T11:05:16;11.80;;;10.50;;
20065;SDS011;10193;48.884;9.182;2023-03-01T11:07:48;12.93;;;11.00;;
20065;SDS011;10193;48.884;9.182;2023-03-01T11:10:16;11.90;;;10.60;;
20065;SDS011;10193;48.884;9.182;2023-03-01T11:12:44;12.30;;;10.93;;
20065;SDS011;10193;48.884;9.182;2023-03-01T11:15:19;13.87;;;11.30;;
20065;SDS011;10193;48.884;9.182;2023-03-01T11:17:48;11.90;;;10.70;;
20065;SDS011;10193;48.884;9.182;2023-03-01T11:20:17;12.43;;;11.13;;
20065;SDS011;10193;48.884;9.182;2023-03-01T11:22:52;12.10;;;10.50;;
20065;SDS011;10193;48.884;9.182;2023-03-01T11:25:21;12.55;;;10.60;;
20065;SDS011;10193;48.884;9.182;2023-03-01T11:27:52;13.80;;;10.73;;
20065;SDS011;10193;48.884;9.182;2023-03-01T11:30:21;12.35;;;10.52;;
20065;SDS011;10193;48.884;9.182;2023-03-01T11:32:54;11.60;;;10.18;;
20065;SDS011;10193;48.884;9.182;2023-03-01T11:35:31;11.45;;;10.27;;
20065;SDS011;10193;48.884;9.182;2023-03-01T11:38:04;12.35;;;11.05;;
20065;SDS011;10193;48.884;9.182;2023-03-01T11:40:43;12.60;;;11.30;;
20065;SDS011;10193;48.884;9.182;2023-03-01T11:43:15;12.02;;;10.82;;
20065;SDS011;10193;48.884;9.182;2023-03-01T11:46:00;11.75;;;10.55;;
20065;SDS011;10193;48.884;9.182;2023-03-01T11:48:53;13.00;;;11.60;;
20065;SDS011;10193;48.884;9.182;2023-03-01T11:51:33;14.90;;;10.10;;
20065;SDS011;10193;48.884;9.182;2023-03-01T11:54:20;11.38;;;9.95;;
20065;SDS011;10193;48.884;9.182;2023-03-01T11:56:55;11.55;;;10.35;;
20065;SDS011;10193;48.884;9.182;2023-03-01T11:59:33;12.02;;;10.13;;
20065;SDS011;10193;48.884;9.182;2023-03-01T12:02:28;11.25;;;10.05;;
20065;SDS011;10193;48.884;9.182;2023-03-01T12:05:16;11.57;;;10.25;;
20065;SDS011;10193;48.884;9.182;2023-03-01T12:07:54;11.48;;;10.27;;
20065;SDS011;10193;48.884;9.182;2023-03-01T12:10:28;10.68;;;9.57;;
20065;SDS011;10193;48.884;9.182;2023-03-01T12:13:06;11.25;;;10.15;;
20065;SDS011;10193;48.884;9.182;2023-03-01T12:15:48;13.25;;;11.85;;
20065;SDS011;10193;48.884;9.182;2023-03-01T12:18:28;12.15;;;10.93;;
20065;SDS011;10193;48.884;9.182;2023-03-01T12:21:14;12.82;;;10.50;;
20065;SDS011;10193;48.884;9.182;2023-03-01T12:24:10;11.63;;;10.43;;
20065;SDS011;10193;48.884;9.182;2023-03-01T12:27:02;11.15;;;10.00;;
20065;SDS011;10193;48.884;9.182;2023-03-01T12:29:39;11.45;;;10.27;;
20065;SDS011;10193;48.884;9.182;2023-03-01T12:32:20;11.93;;;10.73;;
20065;SDS011;10193;48.884;9.182;2023-03-01T12:35:06;10.95;;;9.77;;
20065;SDS011;10193;48.884;9.182;2023-03-01T12:37:49;11.20;;;10.00;;
20065;SDS011;10193;48.884;9.182;2023-03-01T12:40:24;12.40;;;10.93;;
20065;SDS011;10193;48.884;9.182;2023-03-01T12:43:08;11.88;;;10.68;;
20065;SDS011;10193;48.884;9.182;2023-03-01T12:48:38;12.18;;;10.30;;
20065;SDS011;10193;48.884;9.182;2023-03-01T12:51:14;12.32;;;10.27;;
20065;SDS011;10193;48.884;9.182;2023-03-01T12:53:43;13.25;;;11.35;;
20065;SDS011;10193;48.884;9.182;2023-03-01T12:56:14;11.75;;;10.48;;
20065;SDS011;10193;48.884;9.182;2023-03-01T12:58:48;11.00;;;9.90;;
20065;SDS011;10193;48.884;9.182;2023-03-01T13:01:25;12.15;;;10.38;;
20065;SDS011;10193;48.884;9.182;2023-03-01T13:04:05;11.25;;;10.15;;
20065;SDS011;10193;48.884;9.182;2023-03-01T13:06:40;12.05;;;10.85;;
20065;SDS011;10193;48.884;9.182;2023-03-01T13:09:14;11.77;;;10.52;;
20065;SDS011;10193;48.884;9.182;2023-03-01T13:11:48;11.93;;;10.73;;
20065;SDS011;10193;48.884;9.182;2023-03-01T13:17:02;11.30;;;10.07;;
20065;SDS011;10193;48.884;9.182;2023-03-01T13:19:29;11.63;;;10.43;;
20065;SDS011;10193;48.884;9.182;2023-03-01T13:21:57;11.25;;;10.15;;
20065;SDS011;10193;48.884;9.182;2023-03-01T13:24:26;11.98;;;10.75;;
20065;SDS011;10193;48.884;9.182;2023-03-01T13:29:56;11.00;;;9.65;;
20065;SDS011;10193;48.884;9.182;2023-03-01T13:32:28;11.98;;;10.77;;
20065;SDS011;10193;48.884;9.182;2023-03-01T13:34:58;11.73;;;10.52;;
20065;SDS011;10193;48.884;9.182;2023-03-01T13:37:27;11.77;;;10.52;;
20065;SDS011;10193;48.884;9.182;2023-03-01T13:39:59;11.88;;;10.55;;
20065;SDS011;10193;48.884;9.182;2023-03-01T13:42:37;11.57;;;10.38;;
20065;SDS011;10193;48.884;9.182;2023-03-01T13:45:15;12.23;;;10.88;;
20065;SDS011;10193;48.884;9.182;2023-03-01T13:47:45;10.80;;;9.70;;
20065;SDS011;10193;48.884;9.182;2023-03-01T13:50:18;11.45;;;10.25;;
20065;SDS011;10193;48.884;9.182;2023-03-01T13:52:48;13.48;;;10.40;;
20065;SDS011;10193;48.884;9.182;2023-03-01T13:55:18;11.45;;;10.25;;
20065;SDS011;10193;48.884;9.182;2023-03-01T13:57:49;12.73;;;11.07;;
20065;SDS011;10193;48.884;9.182;2023-03-01T14:00:28;12.07;;;10.80;;
20065;SDS011;10193;48.884;9.182;2023-03-01T14:03:03;12.02;;;10.73;;
20065;SDS011;10193;48.884;9.182;2023-03-01T14:05:34;11.23;;;10.13;;
20065;SDS011;10193;48.884;9.182;2023-03-01T14:08:02;13.52;;;10.82;;
20065;SDS011;10193;48.884;9.182;2023-03-01T14:10:31;11.77;;;10.57;;
20065;SDS011;10193;48.884;9.182;2023-03-01T14:13:06;12.02;;;10.77;;
20065;SDS011;10193;48.884;9.182;2023-03-01T14:15:46;12.80;;;11.45;;
20065;SDS011;10193;48.884;9.182;2023-03-01T14:18:23;11.77;;;10.50;;
20065;SDS011;10193;48.884;9.182;2023-03-01T14:20:55;12.25;;;10.82;;
20065;SDS011;10193;48.884;9.182;2023-03-01T14:23:23;11.80;;;10.60;;
20065;SDS011;10193;48.884;9.182;2023-03-01T14:25:52;12.32;;;11.02;;
20065;SDS011;10193;48.884;9.182;2023-03-01T14:28:21;11.95;;;10.75;;
20065;SDS011;10193;48.884;9.182;2023-03-01T14:30:53;12.35;;;10.35;;
20065;SDS011;10193;48.884;9.182;2023-03-01T14:33:23;12.40;;;11.10;;
20065;SDS011;10193;48.884;9.182;2023-03-01T14:35:52;11.93;;;10.73;;
20065;SDS011;10193;48.884;9.182;2023-03-01T14:38:27;12.52;;;11.13;;
20065;SDS011;10193;48.884;9.182;2023-03-01T14:40:56;12.10;;;10.88;;
20065;SDS011;10193;48.884;9.182;2023-03-01T14:43:26;11.32;;;10.18;;
20065;SDS011;10193;48.884;9.182;2023-03-01T14:45:56;12.30;;;11.07;;
20065;SDS011;10193;48.884;9.182;2023-03-01T14:48:23;12.20;;;10.73;;
20065;SDS011;10193;48.884;9.182;2023-03-01T14:50:51;11.23;;;10.07;;
20065;SDS011;10193;48.884;9.182;2023-03-01T14:53:19;11.98;;;10.80;;
20065;SDS011;10193;48.884;9.182;2023-03-01T14:55:48;11.88;;;10.68;;
20065;SDS011;10193;48.884;9.182;2023-03-01T14:58:18;13.07;;;11.48;;
20065;SDS011;10193;48.884;9.182;2023-03-01T15:00:48;12.35;;;11.10;;